Plymouth Light

42° 00' 12"N, 70° 36' 04"W, Elevation 54 ft.
Eastern Time

Hourly observations for the last 72 hours

Date Time Temperature (°F) Humi-
dity

(%)
Wind
(mph)
Pressure Rain (in) Sun
(W/m2)
ET
(in)
Air Dew 6 Hour 1 Hr 3 Hr 6 Hr Day
Alt
(in)
Sea
Level

(mb)
Max Min
30 03:00 46.5 44.6 93 NE 29 G 39 29.66 1004.4 0.00 0 0.000
30 02:00 47.4 44.9 49.9 46.7 91 NE 30 G 39 29.64 1003.8 0.01 0.04 0.21 0.96 0 0.018
30 01:00 47.1 45.7 95 NE 29 G 42 29.64 1003.6 0.02 0.95 0 0.017
30 00:00 47.4 45.8 94 NE 31 G 42 29.63 1003.3 0.01 0.93 0 0.016
29 23:00 48.8 46.3 91 ENE 28 G 36 29.61 1002.6 0.02 0.17 0.92 0 0.014
29 22:00 49.0 47.6 95 ENE 28 G 37 29.61 1002.9 0.05 0.90 0 0.013
29 21:00 49.6 48.2 95 ENE 25 G 34 29.64 1003.6 0.10 0.85 0 0.012
29 20:00 49.4 48.3 49.4 46.6 96 NE 21 G 32 29.64 1003.8 0.20 0.34 0.61 0.75 0 0.011
29 19:00 47.6 46.5 96 NE 18 G 25 29.67 1004.7 0.09 0.55 0 0.010
29 18:00 47.1 45.7 95 NE 16 G 23 29.67 1004.9 0.05 0.46 0 0.009
29 17:00 47.3 45.7 94 ENE 16 G 21 29.70 1005.8 0.07 0.27 0.41 5 0.008
29 16:00 48.0 46.9 96 ENE 11 G 16 29.72 1006.5 0.14 0.34 14 0.007
29 15:00 48.3 46.9 95 ESE 4 G 8 29.73 1006.9 0.06 0.20 33 0.006
29 14:00 48.7 46.8 49.3 47.3 93 NNE 4 G 6 29.77 1008.2 0.06 0.11 0.14 0.14 25 0.005
29 13:00 49.3 46.8 91 SSE 2 G 4 29.82 1009.9 0.02 0.08 44 0.004
29 12:00 48.6 46.4 92 S 4 G 6 29.82 1009.7 0.03 0.06 63 0.003
29 11:00 48.1 45.9 92 NW 0 G 1 29.85 1010.9 0.03 0.03 0.03 49 0.002
29 10:00 48.7 46.8 93 NW 1 G 4 29.89 1012.3 0.00 40 0.001
29 09:00 47.7 46.1 94 NW 3 G 4 29.89 1012.2 0.00 28 0.000
29 08:00 47.5 46.1 47.8 46.5 95 NW 4 G 8 29.89 1012.2 0.00 12 0.000
29 07:00 47.8 46.2 94 WNW 6 G 10 29.90 1012.6 0.00 0 0.000
29 06:00 47.6 46.2 95 WNW 4 G 10 29.89 1012.3 0.00 0 0.000
29 05:00 46.9 45.8 96 WNW 6 G 9 29.91 1012.7 0.00 0 0.000
29 04:00 46.7 45.6 96 WNW 7 G 10 29.90 1012.5 0.00 0 0.000
29 03:00 47.0 45.9 96 WNW 9 G 13 29.90 1012.5 0.00 0 0.000
29 02:00 47.7 46.6 51.1 47.2 96 WNW 8 G 12 29.90 1012.4 0.18 0 0.018
29 01:00 47.7 46.6 96 NW 6 G 12 29.90 1012.6 0.18 0 0.018
29 00:00 47.8 46.7 96 WNW 8 G 13 29.90 1012.7 0.18 0 0.018
28 23:00 47.3 46.2 96 WNW 7 G 13 29.91 1012.9 0.18 0 0.018
28 22:00 48.1 47.0 96 NW 9 G 14 29.90 1012.6 0.18 0 0.018
28 21:00 49.4 48.3 96 NNW 10 G 14 29.90 1012.6 0.18 0 0.018
28 20:00 50.6 49.8 52.2 50.5 97 NW 10 G 16 29.90 1012.5 0.01 0.02 0.18 0 0.018
28 19:00 51.0 50.2 97 N 3 G 8 29.88 1011.9 0.18 0 0.018
28 18:00 51.7 50.6 96 N 4 G 7 29.87 1011.5 0.01 0.18 0 0.018
28 17:00 52.2 51.1 96 S 1 G 8 29.87 1011.4 0.01 0.17 7 0.018
28 16:00 51.5 50.4 96 SE 10 G 16 29.86 1011.3 0.17 33 0.017
28 15:00 51.2 50.4 97 SE 10 G 19 29.89 1012.2 0.01 0.17 56 0.016
28 14:00 50.6 49.8 51.2 49.1 97 S 7 G 14 29.93 1013.6 0.03 0.08 0.15 0.16 46 0.015
28 13:00 51.0 49.9 96 SE 9 G 19 29.96 1014.5 0.02 0.13 33 0.014
28 12:00 50.0 48.6 95 SE 12 G 19 30.00 1016.0 0.03 0.11 93 0.012
28 11:00 49.9 47.7 92 SSE 11 G 18 30.02 1016.8 0.07 0.08 53 0.010
28 10:00 49.4 46.6 90 SSE 10 G 17 30.05 1017.5 0.04 0.08 58 0.008
28 09:00 49.3 45.3 86 SE 8 G 13 30.07 1018.5 0.03 0.04 33 0.006
28 08:00 49.1 43.5 49.5 47.7 81 SE 7 G 12 30.08 1018.5 0.01 0.01 0.01 0.01 18 0.005
28 07:00 49.4 42.5 77 SE 6 G 10 30.09 1019.1 0.00 0 0.004
28 06:00 49.1 41.5 75 E 1 G 7 30.10 1019.5 0.00 0 0.003
28 05:00 48.6 41.4 76 E 3 G 9 30.11 1019.6 0.00 0 0.002
28 04:00 48.3 41.4 77 ENE 4 G 10 30.10 1019.2 0.00 0 0.001
28 03:00 48.0 41.8 79 NE 7 G 11 30.10 1019.4 0.00 0 0.000
28 02:00 47.7 42.8 51.6 47.5 83 NE 14 G 23 30.10 1019.5 0.00 0 0.061
28 01:00 50.5 42.5 74 NNE 7 G 12 30.11 1019.6 0.00 0 0.059
28 00:00 50.0 42.4 75 N 2 G 5 30.11 1019.7 0.00 0 0.058
27 23:00 50.2 42.2 74 N 3 G 4 30.12 1020.1 0.00 0 0.058
27 22:00 51.1 42.8 73 N 3 G 9 30.12 1019.9 0.00 0 0.057
27 21:00 50.7 42.7 74 N 4 G 9 30.13 1020.3 0.00 0 0.056
27 20:00 51.2 42.5 52.8 50.5 72 N 5 G 10 30.11 1019.8 0.00 0 0.055
27 19:00 50.6 41.9 72 N 5 G 9 30.10 1019.2 0.00 0 0.054
27 18:00 50.9 42.6 73 NNW 2 G 6 30.08 1018.6 0.00 0 0.053
27 17:00 51.5 43.8 75 N 3 G 9 30.08 1018.7 0.00 30 0.052
27 16:00 51.5 44.2 76 NNE 10 G 15 30.06 1018.1 0.00 86 0.049
27 15:00 52.2 44.5 75 NNE 13 G 20 30.07 1018.4 0.00 376 0.043
27 14:00 51.9 45.9 53.9 51.2 80 N 12 G 17 30.08 1018.7 0.00 420 0.034
27 13:00 52.4 46.1 79 N 11 G 17 30.09 1019.0 0.00 288 0.027
27 12:00 53.6 47.3 79 N 11 G 17 30.11 1019.7 0.00 294 0.019
27 11:00 52.8 47.5 82 N 7 G 17 30.10 1019.4 0.00 225 0.011
27 10:00 51.8 46.5 82 N 9 G 19 30.11 1019.5 0.00 62 0.007
27 09:00 53.0 46.7 79 N 10 G 20 30.09 1019.2 0.00 113 0.004
27 08:00 52.6 49.8 56.4 52.4 90 N 12 G 18 30.08 1018.5 0.00 21 0.001
27 07:00 52.9 52.1 97 N 12 G 19 30.05 1017.7 0.00 0 0.000
27 06:00 54.7 54.4 99 N 3 G 8 30.03 1016.9 0.00 0 0.000
27 05:00 54.9 54.6 99 NNW 2 G 5 30.00 1016.1 0.00 0 0.000
27 04:00 54.7 54.1 98 WNW 6 G 13 30.00 1015.9 0.00 0 0.000

Data generated by WxSolution Version 1.9.1.1, Build 2017.11.27.